Terminal Aerodrome Forecast
Issued by NWS

Home | Current Version | Previous Version | Text Only | Print | Product List | Glossary On
Versions: 1 2 3 4 5 6 7 8 9 10 11 12 13 14 15 16 17 18 19 20 21 22 23 24 25 26
611
FTUS43 KABR 120245 AAB
TAFMBG
TAF AMD
KMBG 120245Z 1203/1224 VRB05KT 6SM -SN OVC015
     FM120400 03008KT 6SM BR OVC011
     FM121400 02011KT 6SM BR SCT011 OVC050
     FM121900 08008KT P6SM BKN150=

USA.gov is the U.S. government's official web portal to all federal, state and local government web resources and services.